sensor_id;sensor_type;location;lat;lon;timestamp;P1;durP1;ratioP1;P2;durP2;ratioP2
51304;SDS011;37392;50.964;6.952;2023-06-22T00:01:53;8.40;;;4.20;;
51304;SDS011;37392;50.964;6.952;2023-06-22T00:04:18;11.32;;;5.25;;
51304;SDS011;37392;50.964;6.952;2023-06-22T00:06:44;9.07;;;4.53;;
51304;SDS011;37392;50.964;6.952;2023-06-22T00:09:10;9.18;;;4.47;;
51304;SDS011;37392;50.964;6.952;2023-06-22T00:11:36;6.05;;;4.43;;
51304;SDS011;37392;50.964;6.952;2023-06-22T00:14:02;7.90;;;4.68;;
51304;SDS011;37392;50.964;6.952;2023-06-22T00:16:29;10.25;;;4.88;;
51304;SDS011;37392;50.964;6.952;2023-06-22T00:18:55;18.45;;;5.25;;
51304;SDS011;37392;50.964;6.952;2023-06-22T00:21:20;8.07;;;4.78;;
51304;SDS011;37392;50.964;6.952;2023-06-22T00:23:46;5.75;;;4.38;;
51304;SDS011;37392;50.964;6.952;2023-06-22T00:26:12;7.53;;;4.97;;
51304;SDS011;37392;50.964;6.952;2023-06-22T00:28:38;5.97;;;4.32;;
51304;SDS011;37392;50.964;6.952;2023-06-22T00:31:04;8.55;;;4.70;;
51304;SDS011;37392;50.964;6.952;2023-06-22T00:33:30;6.75;;;4.22;;
51304;SDS011;37392;50.964;6.952;2023-06-22T00:35:56;6.55;;;4.38;;
51304;SDS011;37392;50.964;6.952;2023-06-22T00:38:22;5.88;;;4.38;;
51304;SDS011;37392;50.964;6.952;2023-06-22T00:40:48;9.50;;;4.10;;
51304;SDS011;37392;50.964;6.952;2023-06-22T00:43:13;10.07;;;4.60;;
51304;SDS011;37392;50.964;6.952;2023-06-22T00:45:39;4.88;;;4.13;;
51304;SDS011;37392;50.964;6.952;2023-06-22T00:48:05;7.18;;;4.15;;
51304;SDS011;37392;50.964;6.952;2023-06-22T00:50:33;9.05;;;4.95;;
51304;SDS011;37392;50.964;6.952;2023-06-22T00:53:00;5.20;;;4.22;;
51304;SDS011;37392;50.964;6.952;2023-06-22T00:55:33;7.40;;;5.00;;
51304;SDS011;37392;50.964;6.952;2023-06-22T00:58:10;7.00;;;4.95;;
51304;SDS011;37392;50.964;6.952;2023-06-22T01:00:37;8.57;;;4.65;;
51304;SDS011;37392;50.964;6.952;2023-06-22T01:03:04;7.03;;;4.45;;
51304;SDS011;37392;50.964;6.952;2023-06-22T01:05:33;7.15;;;5.13;;
51304;SDS011;37392;50.964;6.952;2023-06-22T01:10:57;8.65;;;4.53;;
51304;SDS011;37392;50.964;6.952;2023-06-22T01:13:41;8.90;;;4.88;;
51304;SDS011;37392;50.964;6.952;2023-06-22T01:18:52;11.05;;;4.20;;
51304;SDS011;37392;50.964;6.952;2023-06-22T01:29:46;7.72;;;4.82;;
51304;SDS011;37392;50.964;6.952;2023-06-22T01:32:16;7.65;;;4.43;;
51304;SDS011;37392;50.964;6.952;2023-06-22T01:34:44;13.98;;;4.40;;
51304;SDS011;37392;50.964;6.952;2023-06-22T01:37:11;7.47;;;4.45;;
51304;SDS011;37392;50.964;6.952;2023-06-22T01:39:38;8.20;;;5.03;;
51304;SDS011;37392;50.964;6.952;2023-06-22T01:42:04;8.30;;;4.65;;
51304;SDS011;37392;50.964;6.952;2023-06-22T01:44:30;11.38;;;4.97;;
51304;SDS011;37392;50.964;6.952;2023-06-22T01:46:56;5.18;;;4.10;;
51304;SDS011;37392;50.964;6.952;2023-06-22T01:49:22;7.32;;;4.68;;
51304;SDS011;37392;50.964;6.952;2023-06-22T01:51:48;6.22;;;4.68;;
51304;SDS011;37392;50.964;6.952;2023-06-22T01:54:14;8.68;;;4.72;;
51304;SDS011;37392;50.964;6.952;2023-06-22T01:56:39;10.32;;;5.03;;
51304;SDS011;37392;50.964;6.952;2023-06-22T01:59:16;5.00;;;4.10;;
51304;SDS011;37392;50.964;6.952;2023-06-22T02:01:55;5.95;;;4.25;;
51304;SDS011;37392;50.964;6.952;2023-06-22T02:04:28;5.57;;;4.30;;
51304;SDS011;37392;50.964;6.952;2023-06-22T02:10:43;5.40;;;4.40;;
51304;SDS011;37392;50.964;6.952;2023-06-22T02:13:10;7.00;;;4.20;;
51304;SDS011;37392;50.964;6.952;2023-06-22T02:15:38;7.88;;;4.40;;
51304;SDS011;37392;50.964;6.952;2023-06-22T02:18:03;6.22;;;4.30;;
51304;SDS011;37392;50.964;6.952;2023-06-22T02:20:30;5.53;;;4.57;;
51304;SDS011;37392;50.964;6.952;2023-06-22T02:22:55;7.95;;;4.72;;
51304;SDS011;37392;50.964;6.952;2023-06-22T02:25:21;6.72;;;4.30;;
51304;SDS011;37392;50.964;6.952;2023-06-22T02:27:47;5.93;;;4.57;;
51304;SDS011;37392;50.964;6.952;2023-06-22T02:30:12;7.22;;;4.63;;
51304;SDS011;37392;50.964;6.952;2023-06-22T02:32:40;8.23;;;4.82;;
51304;SDS011;37392;50.964;6.952;2023-06-22T02:35:07;5.45;;;4.10;;
51304;SDS011;37392;50.964;6.952;2023-06-22T02:37:36;8.00;;;4.70;;
51304;SDS011;37392;50.964;6.952;2023-06-22T02:40:07;6.47;;;4.80;;
51304;SDS011;37392;50.964;6.952;2023-06-22T02:42:34;5.65;;;4.00;;
51304;SDS011;37392;50.964;6.952;2023-06-22T02:45:01;6.53;;;4.55;;
51304;SDS011;37392;50.964;6.952;2023-06-22T02:47:26;6.43;;;4.32;;
51304;SDS011;37392;50.964;6.952;2023-06-22T02:49:52;9.80;;;4.70;;
51304;SDS011;37392;50.964;6.952;2023-06-22T02:52:17;8.82;;;4.55;;
51304;SDS011;37392;50.964;6.952;2023-06-22T02:54:43;7.22;;;3.80;;
51304;SDS011;37392;50.964;6.952;2023-06-22T02:57:11;10.95;;;4.20;;
51304;SDS011;37392;50.964;6.952;2023-06-22T02:59:38;7.18;;;4.47;;
51304;SDS011;37392;50.964;6.952;2023-06-22T03:02:08;7.20;;;4.32;;
51304;SDS011;37392;50.964;6.952;2023-06-22T03:04:34;7.78;;;4.63;;
51304;SDS011;37392;50.964;6.952;2023-06-22T03:07:03;12.90;;;5.55;;
51304;SDS011;37392;50.964;6.952;2023-06-22T03:09:29;6.47;;;4.75;;
51304;SDS011;37392;50.964;6.952;2023-06-22T03:11:54;9.35;;;4.50;;
51304;SDS011;37392;50.964;6.952;2023-06-22T03:14:21;6.93;;;4.50;;
51304;SDS011;37392;50.964;6.952;2023-06-22T03:16:46;7.78;;;4.25;;
51304;SDS011;37392;50.964;6.952;2023-06-22T03:19:12;8.85;;;4.32;;
51304;SDS011;37392;50.964;6.952;2023-06-22T03:21:38;5.70;;;4.13;;
51304;SDS011;37392;50.964;6.952;2023-06-22T03:24:05;5.97;;;4.38;;
51304;SDS011;37392;50.964;6.952;2023-06-22T03:26:31;5.95;;;4.45;;
51304;SDS011;37392;50.964;6.952;2023-06-22T03:28:57;10.63;;;4.82;;
51304;SDS011;37392;50.964;6.952;2023-06-22T03:31:23;10.38;;;4.82;;
51304;SDS011;37392;50.964;6.952;2023-06-22T03:33:49;7.20;;;4.63;;
51304;SDS011;37392;50.964;6.952;2023-06-22T03:36:15;9.20;;;4.07;;
51304;SDS011;37392;50.964;6.952;2023-06-22T03:38:45;8.00;;;4.43;;
51304;SDS011;37392;50.964;6.952;2023-06-22T03:41:12;7.85;;;4.75;;
51304;SDS011;37392;50.964;6.952;2023-06-22T03:43:38;7.35;;;4.05;;
51304;SDS011;37392;50.964;6.952;2023-06-22T03:46:04;7.85;;;4.80;;
51304;SDS011;37392;50.964;6.952;2023-06-22T03:48:29;9.45;;;5.15;;
51304;SDS011;37392;50.964;6.952;2023-06-22T03:50:55;7.57;;;4.63;;
51304;SDS011;37392;50.964;6.952;2023-06-22T03:53:21;9.60;;;5.28;;
51304;SDS011;37392;50.964;6.952;2023-06-22T03:55:50;7.13;;;4.80;;
51304;SDS011;37392;50.964;6.952;2023-06-22T03:58:17;13.90;;;5.43;;
51304;SDS011;37392;50.964;6.952;2023-06-22T04:00:48;12.77;;;5.13;;
51304;SDS011;37392;50.964;6.952;2023-06-22T04:03:15;7.82;;;5.13;;
51304;SDS011;37392;50.964;6.952;2023-06-22T04:05:43;8.95;;;5.32;;
51304;SDS011;37392;50.964;6.952;2023-06-22T04:08:10;11.02;;;5.32;;
51304;SDS011;37392;50.964;6.952;2023-06-22T04:10:38;8.40;;;5.95;;
51304;SDS011;37392;50.964;6.952;2023-06-22T04:13:03;11.07;;;6.15;;
51304;SDS011;37392;50.964;6.952;2023-06-22T04:15:29;9.25;;;5.18;;
51304;SDS011;37392;50.964;6.952;2023-06-22T04:17:55;11.23;;;5.32;;
51304;SDS011;37392;50.964;6.952;2023-06-22T04:20:21;12.73;;;5.60;;
51304;SDS011;37392;50.964;6.952;2023-06-22T04:22:47;6.60;;;5.68;;
51304;SDS011;37392;50.964;6.952;2023-06-22T04:25:13;8.38;;;5.60;;
51304;SDS011;37392;50.964;6.952;2023-06-22T04:27:39;8.25;;;5.78;;
51304;SDS011;37392;50.964;6.952;2023-06-22T04:30:07;9.50;;;5.90;;
51304;SDS011;37392;50.964;6.952;2023-06-22T04:32:34;9.00;;;5.60;;
51304;SDS011;37392;50.964;6.952;2023-06-22T04:35:04;9.43;;;6.40;;
51304;SDS011;37392;50.964;6.952;2023-06-22T04:37:31;10.93;;;6.63;;
51304;SDS011;37392;50.964;6.952;2023-06-22T04:39:57;8.73;;;6.10;;
51304;SDS011;37392;50.964;6.952;2023-06-22T04:42:24;10.63;;;7.28;;
51304;SDS011;37392;50.964;6.952;2023-06-22T04:44:53;11.68;;;7.45;;
51304;SDS011;37392;50.964;6.952;2023-06-22T04:47:19;14.65;;;7.40;;
51304;SDS011;37392;50.964;6.952;2023-06-22T04:49:45;13.65;;;7.70;;
51304;SDS011;37392;50.964;6.952;2023-06-22T04:52:11;16.75;;;8.07;;
51304;SDS011;37392;50.964;6.952;2023-06-22T04:54:39;9.75;;;6.93;;
51304;SDS011;37392;50.964;6.952;2023-06-22T04:57:13;10.00;;;7.60;;
51304;SDS011;37392;50.964;6.952;2023-06-22T04:59:39;9.80;;;7.65;;
51304;SDS011;37392;50.964;6.952;2023-06-22T05:02:07;11.38;;;7.60;;
51304;SDS011;37392;50.964;6.952;2023-06-22T05:04:33;10.48;;;7.88;;
51304;SDS011;37392;50.964;6.952;2023-06-22T05:07:00;12.60;;;7.43;;
51304;SDS011;37392;50.964;6.952;2023-06-22T05:09:28;11.30;;;8.00;;
51304;SDS011;37392;50.964;6.952;2023-06-22T05:11:54;10.88;;;8.65;;
51304;SDS011;37392;50.964;6.952;2023-06-22T05:14:21;10.80;;;8.80;;
51304;SDS011;37392;50.964;6.952;2023-06-22T05:16:48;13.40;;;10.27;;
51304;SDS011;37392;50.964;6.952;2023-06-22T05:19:14;13.68;;;8.73;;
51304;SDS011;37392;50.964;6.952;2023-06-22T05:21:40;11.70;;;9.27;;
51304;SDS011;37392;50.964;6.952;2023-06-22T05:24:05;19.23;;;15.70;;
51304;SDS011;37392;50.964;6.952;2023-06-22T05:26:32;10.70;;;8.98;;
51304;SDS011;37392;50.964;6.952;2023-06-22T05:28:59;12.45;;;8.68;;
51304;SDS011;37392;50.964;6.952;2023-06-22T05:31:26;10.40;;;8.65;;
51304;SDS011;37392;50.964;6.952;2023-06-22T05:33:52;15.43;;;9.18;;
51304;SDS011;37392;50.964;6.952;2023-06-22T05:36:19;12.40;;;9.15;;
51304;SDS011;37392;50.964;6.952;2023-06-22T05:38:46;11.70;;;8.48;;
51304;SDS011;37392;50.964;6.952;2023-06-22T05:41:12;17.35;;;9.20;;
51304;SDS011;37392;50.964;6.952;2023-06-22T05:43:37;11.43;;;7.97;;
51304;SDS011;37392;50.964;6.952;2023-06-22T05:46:03;14.02;;;8.32;;
51304;SDS011;37392;50.964;6.952;2023-06-22T05:48:30;12.73;;;8.50;;
51304;SDS011;37392;50.964;6.952;2023-06-22T05:50:55;10.43;;;8.55;;
51304;SDS011;37392;50.964;6.952;2023-06-22T05:53:21;10.95;;;7.78;;
51304;SDS011;37392;50.964;6.952;2023-06-22T05:55:47;13.15;;;8.60;;
51304;SDS011;37392;50.964;6.952;2023-06-22T05:58:13;12.48;;;8.85;;
51304;SDS011;37392;50.964;6.952;2023-06-22T06:00:39;11.52;;;7.75;;
51304;SDS011;37392;50.964;6.952;2023-06-22T06:03:06;17.05;;;8.52;;
51304;SDS011;37392;50.964;6.952;2023-06-22T06:05:33;10.52;;;7.75;;
51304;SDS011;37392;50.964;6.952;2023-06-22T06:08:00;21.77;;;8.23;;
51304;SDS011;37392;50.964;6.952;2023-06-22T06:10:28;10.02;;;7.13;;
51304;SDS011;37392;50.964;6.952;2023-06-22T06:12:55;12.88;;;6.25;;
51304;SDS011;37392;50.964;6.952;2023-06-22T06:15:21;9.90;;;6.00;;
51304;SDS011;37392;50.964;6.952;2023-06-22T06:17:50;9.73;;;6.18;;
51304;SDS011;37392;50.964;6.952;2023-06-22T06:20:18;9.85;;;6.47;;
51304;SDS011;37392;50.964;6.952;2023-06-22T06:22:48;8.30;;;7.23;;
51304;SDS011;37392;50.964;6.952;2023-06-22T06:25:14;12.18;;;6.88;;
51304;SDS011;37392;50.964;6.952;2023-06-22T06:27:43;7.38;;;6.30;;
51304;SDS011;37392;50.964;6.952;2023-06-22T06:30:10;8.13;;;6.03;;
51304;SDS011;37392;50.964;6.952;2023-06-22T06:32:37;12.18;;;7.55;;
51304;SDS011;37392;50.964;6.952;2023-06-22T06:35:07;13.02;;;6.32;;
51304;SDS011;37392;50.964;6.952;2023-06-22T06:42:35;16.73;;;7.07;;
51304;SDS011;37392;50.964;6.952;2023-06-22T06:45:16;9.52;;;6.32;;
51304;SDS011;37392;50.964;6.952;2023-06-22T06:47:44;11.65;;;7.15;;
51304;SDS011;37392;50.964;6.952;2023-06-22T06:50:11;12.13;;;7.40;;
51304;SDS011;37392;50.964;6.952;2023-06-22T06:52:36;10.35;;;6.68;;
51304;SDS011;37392;50.964;6.952;2023-06-22T06:55:02;7.70;;;6.15;;
51304;SDS011;37392;50.964;6.952;2023-06-22T06:57:36;11.95;;;7.00;;
51304;SDS011;37392;50.964;6.952;2023-06-22T07:00:06;11.15;;;7.43;;
51304;SDS011;37392;50.964;6.952;2023-06-22T07:02:37;15.02;;;6.93;;
51304;SDS011;37392;50.964;6.952;2023-06-22T07:05:05;9.18;;;6.53;;
51304;SDS011;37392;50.964;6.952;2023-06-22T07:07:31;11.68;;;7.60;;
51304;SDS011;37392;50.964;6.952;2023-06-22T07:09:57;9.32;;;6.95;;
51304;SDS011;37392;50.964;6.952;2023-06-22T07:12:23;8.80;;;7.22;;
51304;SDS011;37392;50.964;6.952;2023-06-22T07:14:49;15.13;;;7.18;;
51304;SDS011;37392;50.964;6.952;2023-06-22T07:17:15;8.50;;;6.38;;
51304;SDS011;37392;50.964;6.952;2023-06-22T07:19:40;9.55;;;7.43;;
51304;SDS011;37392;50.964;6.952;2023-06-22T07:22:07;7.93;;;6.32;;
51304;SDS011;37392;50.964;6.952;2023-06-22T07:24:32;9.02;;;7.35;;
51304;SDS011;37392;50.964;6.952;2023-06-22T07:26:58;13.85;;;7.55;;
51304;SDS011;37392;50.964;6.952;2023-06-22T07:29:24;12.38;;;6.10;;
51304;SDS011;37392;50.964;6.952;2023-06-22T07:31:51;10.02;;;6.35;;
51304;SDS011;37392;50.964;6.952;2023-06-22T07:34:18;8.60;;;5.32;;
51304;SDS011;37392;50.964;6.952;2023-06-22T07:36:44;9.57;;;6.10;;
51304;SDS011;37392;50.964;6.952;2023-06-22T07:39:11;12.85;;;5.85;;
51304;SDS011;37392;50.964;6.952;2023-06-22T07:41:37;10.88;;;6.00;;
51304;SDS011;37392;50.964;6.952;2023-06-22T07:44:05;5.53;;;5.00;;
51304;SDS011;37392;50.964;6.952;2023-06-22T07:46:31;13.45;;;6.45;;
51304;SDS011;37392;50.964;6.952;2023-06-22T07:48:57;9.93;;;6.63;;
51304;SDS011;37392;50.964;6.952;2023-06-22T07:51:24;9.30;;;6.95;;
51304;SDS011;37392;50.964;6.952;2023-06-22T07:53:50;13.85;;;8.75;;
51304;SDS011;37392;50.964;6.952;2023-06-22T07:56:15;7.65;;;6.25;;
51304;SDS011;37392;50.964;6.952;2023-06-22T07:58:45;7.65;;;6.53;;
51304;SDS011;37392;50.964;6.952;2023-06-22T08:01:11;7.72;;;5.68;;
51304;SDS011;37392;50.964;6.952;2023-06-22T08:03:38;6.10;;;5.50;;
51304;SDS011;37392;50.964;6.952;2023-06-22T08:06:04;7.25;;;5.38;;
51304;SDS011;37392;50.964;6.952;2023-06-22T08:08:31;7.05;;;5.15;;
51304;SDS011;37392;50.964;6.952;2023-06-22T08:10:56;12.65;;;6.60;;
51304;SDS011;37392;50.964;6.952;2023-06-22T08:13:22;6.75;;;5.38;;
51304;SDS011;37392;50.964;6.952;2023-06-22T08:15:48;12.10;;;6.15;;
51304;SDS011;37392;50.964;6.952;2023-06-22T08:18:14;7.72;;;5.28;;
51304;SDS011;37392;50.964;6.952;2023-06-22T08:20:39;6.45;;;5.47;;
51304;SDS011;37392;50.964;6.952;2023-06-22T08:23:05;10.23;;;4.80;;
51304;SDS011;37392;50.964;6.952;2023-06-22T08:25:31;6.68;;;5.05;;
51304;SDS011;37392;50.964;6.952;2023-06-22T08:27:59;5.43;;;4.93;;
51304;SDS011;37392;50.964;6.952;2023-06-22T08:30:26;8.15;;;5.60;;
51304;SDS011;37392;50.964;6.952;2023-06-22T08:32:51;7.18;;;5.13;;
51304;SDS011;37392;50.964;6.952;2023-06-22T08:35:17;6.35;;;5.20;;
51304;SDS011;37392;50.964;6.952;2023-06-22T08:37:42;6.57;;;5.10;;
51304;SDS011;37392;50.964;6.952;2023-06-22T08:40:09;11.98;;;5.55;;
51304;SDS011;37392;50.964;6.952;2023-06-22T08:42:35;7.57;;;5.13;;
51304;SDS011;37392;50.964;6.952;2023-06-22T08:45:02;5.95;;;5.45;;
51304;SDS011;37392;50.964;6.952;2023-06-22T08:47:29;7.30;;;5.35;;
51304;SDS011;37392;50.964;6.952;2023-06-22T08:49:54;10.00;;;6.80;;
51304;SDS011;37392;50.964;6.952;2023-06-22T08:52:20;9.50;;;5.95;;
51304;SDS011;37392;50.964;6.952;2023-06-22T08:54:46;6.60;;;5.97;;
51304;SDS011;37392;50.964;6.952;2023-06-22T08:57:12;12.68;;;5.95;;
51304;SDS011;37392;50.964;6.952;2023-06-22T08:59:38;8.95;;;6.03;;
51304;SDS011;37392;50.964;6.952;2023-06-22T09:02:04;6.32;;;5.72;;
51304;SDS011;37392;50.964;6.952;2023-06-22T09:04:30;10.35;;;5.80;;
51304;SDS011;37392;50.964;6.952;2023-06-22T09:06:59;13.25;;;6.70;;
51304;SDS011;37392;50.964;6.952;2023-06-22T09:09:26;7.72;;;5.63;;
51304;SDS011;37392;50.964;6.952;2023-06-22T09:11:52;8.07;;;5.75;;
51304;SDS011;37392;50.964;6.952;2023-06-22T09:14:17;8.13;;;5.40;;
51304;SDS011;37392;50.964;6.952;2023-06-22T09:16:43;8.82;;;5.53;;
51304;SDS011;37392;50.964;6.952;2023-06-22T09:19:09;9.07;;;6.20;;
51304;SDS011;37392;50.964;6.952;2023-06-22T09:21:35;7.15;;;6.45;;
51304;SDS011;37392;50.964;6.952;2023-06-22T09:24:02;9.02;;;6.50;;
51304;SDS011;37392;50.964;6.952;2023-06-22T09:26:28;6.60;;;5.15;;
51304;SDS011;37392;50.964;6.952;2023-06-22T09:28:53;8.57;;;5.78;;
51304;SDS011;37392;50.964;6.952;2023-06-22T09:31:19;6.20;;;5.60;;
51304;SDS011;37392;50.964;6.952;2023-06-22T09:33:51;10.07;;;5.93;;
51304;SDS011;37392;50.964;6.952;2023-06-22T09:36:22;7.65;;;6.30;;
51304;SDS011;37392;50.964;6.952;2023-06-22T09:38:48;6.93;;;6.20;;
51304;SDS011;37392;50.964;6.952;2023-06-22T09:41:21;10.75;;;6.47;;
51304;SDS011;37392;50.964;6.952;2023-06-22T09:43:47;10.95;;;6.13;;
51304;SDS011;37392;50.964;6.952;2023-06-22T09:46:14;6.80;;;5.82;;
51304;SDS011;37392;50.964;6.952;2023-06-22T09:48:40;19.90;;;6.10;;
51304;SDS011;37392;50.964;6.952;2023-06-22T09:51:06;7.47;;;5.70;;
51304;SDS011;37392;50.964;6.952;2023-06-22T09:53:31;11.25;;;5.70;;
51304;SDS011;37392;50.964;6.952;2023-06-22T09:55:57;9.73;;;6.32;;
51304;SDS011;37392;50.964;6.952;2023-06-22T09:58:23;6.53;;;5.80;;
51304;SDS011;37392;50.964;6.952;2023-06-22T10:00:48;10.05;;;6.70;;
51304;SDS011;37392;50.964;6.952;2023-06-22T10:03:14;10.13;;;6.18;;
51304;SDS011;37392;50.964;6.952;2023-06-22T10:05:39;9.68;;;6.18;;
51304;SDS011;37392;50.964;6.952;2023-06-22T10:08:05;6.72;;;6.03;;
51304;SDS011;37392;50.964;6.952;2023-06-22T10:10:32;7.30;;;6.55;;
51304;SDS011;37392;50.964;6.952;2023-06-22T10:13:02;7.90;;;6.93;;
51304;SDS011;37392;50.964;6.952;2023-06-22T10:15:35;10.40;;;6.07;;
51304;SDS011;37392;50.964;6.952;2023-06-22T10:18:02;9.10;;;6.45;;
51304;SDS011;37392;50.964;6.952;2023-06-22T10:20:27;8.50;;;6.22;;
51304;SDS011;37392;50.964;6.952;2023-06-22T10:22:53;9.43;;;6.68;;
51304;SDS011;37392;50.964;6.952;2023-06-22T10:25:19;9.07;;;7.20;;
51304;SDS011;37392;50.964;6.952;2023-06-22T10:27:45;11.38;;;7.40;;
51304;SDS011;37392;50.964;6.952;2023-06-22T10:30:11;9.48;;;7.32;;
51304;SDS011;37392;50.964;6.952;2023-06-22T10:32:38;9.68;;;8.23;;
51304;SDS011;37392;50.964;6.952;2023-06-22T10:35:05;15.38;;;8.32;;
51304;SDS011;37392;50.964;6.952;2023-06-22T10:37:31;20.08;;;9.40;;
51304;SDS011;37392;50.964;6.952;2023-06-22T10:39:57;11.00;;;9.80;;
51304;SDS011;37392;50.964;6.952;2023-06-22T10:42:22;20.55;;;17.17;;
51304;SDS011;37392;50.964;6.952;2023-06-22T10:44:48;27.00;;;14.77;;
51304;SDS011;37392;50.964;6.952;2023-06-22T10:47:14;22.88;;;14.13;;
51304;SDS011;37392;50.964;6.952;2023-06-22T10:49:40;24.00;;;15.38;;
51304;SDS011;37392;50.964;6.952;2023-06-22T10:52:06;24.10;;;17.65;;
51304;SDS011;37392;50.964;6.952;2023-06-22T10:54:33;29.92;;;19.85;;
51304;SDS011;37392;50.964;6.952;2023-06-22T10:57:00;28.17;;;21.73;;
51304;SDS011;37392;50.964;6.952;2023-06-22T10:59:27;34.08;;;21.67;;
51304;SDS011;37392;50.964;6.952;2023-06-22T11:01:54;36.75;;;23.63;;
51304;SDS011;37392;50.964;6.952;2023-06-22T11:04:21;53.38;;;28.48;;
51304;SDS011;37392;50.964;6.952;2023-06-22T11:06:47;45.42;;;26.05;;
51304;SDS011;37392;50.964;6.952;2023-06-22T11:09:14;51.28;;;29.67;;
51304;SDS011;37392;50.964;6.952;2023-06-22T11:11:44;58.35;;;29.40;;
51304;SDS011;37392;50.964;6.952;2023-06-22T11:14:10;38.67;;;25.08;;
51304;SDS011;37392;50.964;6.952;2023-06-22T11:16:36;34.90;;;22.67;;
51304;SDS011;37392;50.964;6.952;2023-06-22T11:19:01;102.65;;;30.13;;
51304;SDS011;37392;50.964;6.952;2023-06-22T11:21:28;62.97;;;25.35;;
51304;SDS011;37392;50.964;6.952;2023-06-22T11:23:53;40.55;;;25.38;;
51304;SDS011;37392;50.964;6.952;2023-06-22T11:26:19;46.85;;;27.33;;
51304;SDS011;37392;50.964;6.952;2023-06-22T11:28:46;49.95;;;32.38;;
51304;SDS011;37392;50.964;6.952;2023-06-22T11:31:12;47.72;;;33.08;;
51304;SDS011;37392;50.964;6.952;2023-06-22T11:33:37;37.50;;;22.42;;
51304;SDS011;37392;50.964;6.952;2023-06-22T11:36:03;35.17;;;25.30;;
51304;SDS011;37392;50.964;6.952;2023-06-22T11:38:28;29.23;;;23.52;;
51304;SDS011;37392;50.964;6.952;2023-06-22T11:40:55;39.42;;;28.95;;
51304;SDS011;37392;50.964;6.952;2023-06-22T11:43:23;37.85;;;27.98;;
51304;SDS011;37392;50.964;6.952;2023-06-22T11:45:50;43.42;;;26.80;;
51304;SDS011;37392;50.964;6.952;2023-06-22T11:48:15;40.42;;;28.95;;
51304;SDS011;37392;50.964;6.952;2023-06-22T11:50:41;55.65;;;30.05;;
51304;SDS011;37392;50.964;6.952;2023-06-22T11:53:07;42.88;;;30.58;;
51304;SDS011;37392;50.964;6.952;2023-06-22T11:55:32;47.13;;;29.52;;
51304;SDS011;37392;50.964;6.952;2023-06-22T11:57:58;34.15;;;26.90;;
51304;SDS011;37392;50.964;6.952;2023-06-22T12:00:25;36.25;;;26.23;;
51304;SDS011;37392;50.964;6.952;2023-06-22T12:02:51;39.38;;;28.00;;
51304;SDS011;37392;50.964;6.952;2023-06-22T12:05:20;41.40;;;27.90;;
51304;SDS011;37392;50.964;6.952;2023-06-22T12:07:46;43.45;;;30.50;;
51304;SDS011;37392;50.964;6.952;2023-06-22T12:10:12;34.05;;;26.25;;
51304;SDS011;37392;50.964;6.952;2023-06-22T12:12:37;35.03;;;24.60;;
51304;SDS011;37392;50.964;6.952;2023-06-22T12:15:03;25.13;;;20.75;;
51304;SDS011;37392;50.964;6.952;2023-06-22T12:17:30;26.83;;;18.38;;
51304;SDS011;37392;50.964;6.952;2023-06-22T12:19:56;22.90;;;15.68;;
51304;SDS011;37392;50.964;6.952;2023-06-22T12:22:21;35.25;;;17.95;;
51304;SDS011;37392;50.964;6.952;2023-06-22T12:24:47;22.08;;;17.60;;
51304;SDS011;37392;50.964;6.952;2023-06-22T12:27:13;24.58;;;17.23;;
51304;SDS011;37392;50.964;6.952;2023-06-22T12:29:41;23.50;;;16.25;;
51304;SDS011;37392;50.964;6.952;2023-06-22T12:32:07;25.45;;;16.17;;
51304;SDS011;37392;50.964;6.952;2023-06-22T12:34:32;23.83;;;15.38;;
51304;SDS011;37392;50.964;6.952;2023-06-22T12:36:58;23.40;;;13.18;;
51304;SDS011;37392;50.964;6.952;2023-06-22T12:39:23;21.13;;;13.30;;
51304;SDS011;37392;50.964;6.952;2023-06-22T12:41:49;17.83;;;12.80;;
51304;SDS011;37392;50.964;6.952;2023-06-22T12:44:15;18.02;;;12.82;;
51304;SDS011;37392;50.964;6.952;2023-06-22T12:46:40;19.52;;;12.05;;
51304;SDS011;37392;50.964;6.952;2023-06-22T12:49:06;19.25;;;11.38;;
51304;SDS011;37392;50.964;6.952;2023-06-22T12:51:31;17.88;;;11.02;;
51304;SDS011;37392;50.964;6.952;2023-06-22T12:53:57;18.25;;;11.50;;
51304;SDS011;37392;50.964;6.952;2023-06-22T12:56:22;18.02;;;11.30;;
51304;SDS011;37392;50.964;6.952;2023-06-22T12:58:48;14.10;;;11.52;;
51304;SDS011;37392;50.964;6.952;2023-06-22T13:01:13;16.23;;;11.00;;
51304;SDS011;37392;50.964;6.952;2023-06-22T13:03:39;19.10;;;11.65;;
51304;SDS011;37392;50.964;6.952;2023-06-22T13:06:06;15.95;;;10.95;;
51304;SDS011;37392;50.964;6.952;2023-06-22T13:08:32;19.08;;;12.07;;
51304;SDS011;37392;50.964;6.952;2023-06-22T13:10:57;15.30;;;11.45;;
51304;SDS011;37392;50.964;6.952;2023-06-22T13:13:23;13.63;;;10.27;;
51304;SDS011;37392;50.964;6.952;2023-06-22T13:15:50;13.10;;;9.93;;
51304;SDS011;37392;50.964;6.952;2023-06-22T13:18:17;12.77;;;10.05;;
51304;SDS011;37392;50.964;6.952;2023-06-22T13:20:43;14.02;;;9.05;;
51304;SDS011;37392;50.964;6.952;2023-06-22T13:23:10;11.85;;;8.55;;
51304;SDS011;37392;50.964;6.952;2023-06-22T13:25:36;12.65;;;7.80;;
51304;SDS011;37392;50.964;6.952;2023-06-22T13:28:01;12.95;;;8.65;;
51304;SDS011;37392;50.964;6.952;2023-06-22T13:30:27;14.65;;;7.53;;
51304;SDS011;37392;50.964;6.952;2023-06-22T13:32:52;11.02;;;7.57;;
51304;SDS011;37392;50.964;6.952;2023-06-22T13:35:18;12.07;;;7.93;;
51304;SDS011;37392;50.964;6.952;2023-06-22T13:37:44;10.40;;;7.57;;
51304;SDS011;37392;50.964;6.952;2023-06-22T13:40:09;10.55;;;8.18;;
51304;SDS011;37392;50.964;6.952;2023-06-22T13:42:35;14.80;;;8.32;;
51304;SDS011;37392;50.964;6.952;2023-06-22T13:45:01;11.43;;;6.95;;
51304;SDS011;37392;50.964;6.952;2023-06-22T13:47:28;7.97;;;6.82;;
51304;SDS011;37392;50.964;6.952;2023-06-22T13:49:55;10.57;;;6.13;;
51304;SDS011;37392;50.964;6.952;2023-06-22T13:52:20;7.75;;;6.35;;
51304;SDS011;37392;50.964;6.952;2023-06-22T13:54:46;11.05;;;7.05;;
51304;SDS011;37392;50.964;6.952;2023-06-22T13:57:12;10.80;;;6.65;;
51304;SDS011;37392;50.964;6.952;2023-06-22T13:59:37;7.65;;;6.43;;
51304;SDS011;37392;50.964;6.952;2023-06-22T14:02:03;11.85;;;6.00;;
51304;SDS011;37392;50.964;6.952;2023-06-22T14:04:29;6.45;;;5.03;;
51304;SDS011;37392;50.964;6.952;2023-06-22T14:06:54;6.95;;;5.03;;
51304;SDS011;37392;50.964;6.952;2023-06-22T14:09:21;7.90;;;4.85;;
51304;SDS011;37392;50.964;6.952;2023-06-22T14:11:46;6.13;;;4.25;;
51304;SDS011;37392;50.964;6.952;2023-06-22T14:14:12;7.47;;;4.88;;
51304;SDS011;37392;50.964;6.952;2023-06-22T14:16:37;5.03;;;4.50;;
51304;SDS011;37392;50.964;6.952;2023-06-22T14:19:03;6.63;;;4.57;;
51304;SDS011;37392;50.964;6.952;2023-06-22T14:21:28;5.28;;;4.75;;
51304;SDS011;37392;50.964;6.952;2023-06-22T14:23:54;6.00;;;5.20;;
51304;SDS011;37392;50.964;6.952;2023-06-22T14:26:20;8.48;;;5.60;;
51304;SDS011;37392;50.964;6.952;2023-06-22T14:28:46;7.88;;;5.65;;
51304;SDS011;37392;50.964;6.952;2023-06-22T14:31:17;5.68;;;5.07;;
51304;SDS011;37392;50.964;6.952;2023-06-22T14:36:12;7.65;;;5.72;;
51304;SDS011;37392;50.964;6.952;2023-06-22T14:38:39;9.70;;;5.78;;
51304;SDS011;37392;50.964;6.952;2023-06-22T14:41:05;8.32;;;5.68;;
51304;SDS011;37392;50.964;6.952;2023-06-22T14:43:31;7.07;;;5.60;;
51304;SDS011;37392;50.964;6.952;2023-06-22T14:45:56;8.30;;;5.60;;
51304;SDS011;37392;50.964;6.952;2023-06-22T14:48:22;9.35;;;6.35;;
51304;SDS011;37392;50.964;6.952;2023-06-22T14:50:48;9.52;;;5.45;;
51304;SDS011;37392;50.964;6.952;2023-06-22T14:53:13;6.82;;;4.93;;
51304;SDS011;37392;50.964;6.952;2023-06-22T14:55:39;7.07;;;4.97;;
51304;SDS011;37392;50.964;6.952;2023-06-22T14:58:05;7.50;;;4.78;;
51304;SDS011;37392;50.964;6.952;2023-06-22T15:00:31;14.25;;;5.15;;